FCBB

Maya-Maya Airport

Brazzaville, Congo
METAR FCBB 180600Z 25003KT 9999 FEW006 22/21 Q1012 NOSIG
Observed Flight Rules
Feb-18 @ 06:00 UTC (an hour ago) Visual Flight Rules
Wind Visibility Clouds
250° at 3 knots 10,000+ meters
  • Few at 600' AGL
Temperatures Readings
Current 22°C / 72°F
Dewpoint 21°C / 70°F
Humidity 94%
Altimeter 29.88" Hg
Pressure 1012 hPa
Elevation 316
METAR FCBB 180600Z 25003KT 9999 FEW006 22/21 Q1012 NOSIG
Observed Flight Rules
Feb-18 @ 06:00 UTC
(an hour ago)
VFR
Wind Visibility
250° at 3 knots 10,000+ meters
Clouds
  • Few at 600' AGL
Temperature Dewpoint
22°C / 72°F 21°C / 70°F
Humidity Altimeter Pressure
94% 29.88" Hg 1012 hPa